createdAt,value
2023-04-27T00:01:42.239Z,90.30
2023-04-27T00:04:09.638Z,90.30
2023-04-27T00:06:36.887Z,89.43
2023-04-27T00:09:04.653Z,89.56
2023-04-27T00:11:31.942Z,89.40
2023-04-27T00:13:58.988Z,87.85
2023-04-27T00:16:26.323Z,88.71
2023-04-27T00:18:53.303Z,88.27
2023-04-27T00:21:20.376Z,88.21
2023-04-27T00:23:47.513Z,87.68
2023-04-27T00:26:14.575Z,87.76
2023-04-27T00:28:44.227Z,87.16
2023-04-27T00:31:11.594Z,87.21
2023-04-27T00:33:38.693Z,86.53
2023-04-27T00:36:06.189Z,86.69
2023-04-27T00:38:33.195Z,85.27
2023-04-27T00:41:07.008Z,86.79
2023-04-27T00:43:41.768Z,84.54
2023-04-27T00:46:09.601Z,84.37
2023-04-27T00:48:37.498Z,83.78
2023-04-27T00:51:05.341Z,83.66
2023-04-27T00:53:34.462Z,83.81
2023-04-27T00:56:01.552Z,82.83
2023-04-27T00:58:29.287Z,83.03
2023-04-27T01:00:56.590Z,82.38
2023-04-27T01:03:23.960Z,83.57
2023-04-27T01:05:51.184Z,84.11
2023-04-27T01:08:18.247Z,84.69
2023-04-27T01:10:45.338Z,85.55
2023-04-27T01:13:12.573Z,86.15
2023-04-27T01:15:39.566Z,85.58
2023-04-27T01:18:10.033Z,84.94
2023-04-27T01:20:38.901Z,84.91
2023-04-27T01:23:06.474Z,85.34
2023-04-27T01:25:33.667Z,84.79
2023-04-27T01:28:03.042Z,84.79
2023-04-27T01:30:30.532Z,84.33
2023-04-27T01:32:59.344Z,83.40
2023-04-27T01:35:28.246Z,83.80
2023-04-27T01:38:00.432Z,83.73
2023-04-27T01:40:27.593Z,83.66
2023-04-27T01:42:54.630Z,84.49
2023-04-27T01:45:21.860Z,83.02
2023-04-27T01:47:52.102Z,82.70
2023-04-27T01:50:20.964Z,82.38
2023-04-27T01:52:47.997Z,82.26
2023-04-27T01:55:15.174Z,80.99
2023-04-27T01:57:43.064Z,81.25
2023-04-27T02:00:10.878Z,81.53
2023-04-27T02:02:53.756Z,81.47
2023-04-27T02:05:22.058Z,82.73
2023-04-27T02:07:49.708Z,82.26
2023-04-27T02:10:16.913Z,81.46
2023-04-27T02:12:45.229Z,81.13
2023-04-27T02:15:12.388Z,80.61
2023-04-27T02:17:40.112Z,80.77
2023-04-27T02:20:07.866Z,81.83
2023-04-27T02:22:35.841Z,81.03
2023-04-27T02:25:03.108Z,81.55
2023-04-27T02:27:30.110Z,81.84
2023-04-27T02:29:58.317Z,82.21
2023-04-27T02:32:25.882Z,83.33
2023-04-27T02:34:52.999Z,83.07
2023-04-27T02:37:19.957Z,84.48
2023-04-27T02:39:47.486Z,84.96
2023-04-27T02:42:14.862Z,84.94
2023-04-27T02:44:43.105Z,84.82
2023-04-27T02:47:11.114Z,85.41
2023-04-27T02:49:38.487Z,85.69
2023-04-27T02:52:05.952Z,86.55
2023-04-27T02:54:33.098Z,86.03
2023-04-27T02:57:00.158Z,87.15
2023-04-27T02:59:27.349Z,87.87
2023-04-27T03:01:54.602Z,87.86
2023-04-27T03:04:21.706Z,88.77
2023-04-27T03:06:49.154Z,89.09
2023-04-27T03:09:16.472Z,88.59
2023-04-27T03:11:43.964Z,88.26
2023-04-27T03:14:12.813Z,87.85
2023-04-27T03:16:40.405Z,87.65
2023-04-27T03:19:07.635Z,86.47
2023-04-27T03:21:34.755Z,85.86
2023-04-27T03:24:01.937Z,85.56
2023-04-27T03:26:28.929Z,85.48
2023-04-27T03:28:57.910Z,84.37
2023-04-27T03:31:28.784Z,84.96
2023-04-27T03:33:55.802Z,84.96
2023-04-27T03:36:22.881Z,84.53
2023-04-27T03:38:50.016Z,83.84
2023-04-27T03:41:17.196Z,84.47
2023-04-27T03:43:44.182Z,83.04
2023-04-27T03:46:11.382Z,82.92
2023-04-27T03:48:38.660Z,82.06
2023-04-27T03:51:06.911Z,81.22
2023-04-27T03:53:34.446Z,81.89
2023-04-27T03:56:02.496Z,81.17
2023-04-27T03:58:29.662Z,82.32
2023-04-27T04:01:19.018Z,80.59
2023-04-27T04:03:48.435Z,81.07
2023-04-27T04:06:15.581Z,80.43
2023-04-27T04:08:42.698Z,81.73
2023-04-27T04:11:10.254Z,81.83
2023-04-27T04:13:37.843Z,81.52
2023-04-27T04:16:06.905Z,81.15
2023-04-27T04:18:35.035Z,82.53
2023-04-27T04:21:02.383Z,82.49
2023-04-27T04:23:29.891Z,80.78
2023-04-27T04:25:57.945Z,80.64
2023-04-27T04:28:28.921Z,81.25
2023-04-27T04:30:56.972Z,80.49
2023-04-27T04:33:24.436Z,80.62
2023-04-27T04:35:51.883Z,79.65
2023-04-27T04:38:19.337Z,79.57
2023-04-27T04:40:46.551Z,80.04
2023-04-27T04:43:13.719Z,80.32
2023-04-27T04:45:42.817Z,79.44
2023-04-27T04:48:14.457Z,80.11
2023-04-27T04:50:42.215Z,79.73
2023-04-27T04:54:18.841Z,79.69
2023-04-27T04:56:48.158Z,80.52
2023-04-27T04:59:15.347Z,80.68
2023-04-27T05:01:42.638Z,80.90
2023-04-27T05:04:09.777Z,81.99
2023-04-27T05:06:36.909Z,81.48
2023-04-27T05:09:06.584Z,81.13
2023-04-27T05:11:33.622Z,81.27
2023-04-27T05:14:00.689Z,81.25
2023-04-27T05:16:27.954Z,81.76
2023-04-27T05:18:55.003Z,81.24
2023-04-27T05:21:22.359Z,80.57
2023-04-27T05:23:49.641Z,80.33
2023-04-27T05:26:18.261Z,80.83
2023-04-27T05:28:47.128Z,78.68
2023-04-27T05:31:14.215Z,78.08
2023-04-27T05:33:41.409Z,79.31
2023-04-27T05:36:09.380Z,78.35
2023-04-27T05:38:40.278Z,77.87
2023-04-27T05:41:07.686Z,78.49
2023-04-27T05:43:35.362Z,79.65
2023-04-27T05:46:02.355Z,76.81
2023-04-27T05:48:29.433Z,76.65
2023-04-27T05:51:03.577Z,75.89
2023-04-27T05:53:31.035Z,77.54
2023-04-27T05:55:59.412Z,77.38
2023-04-27T05:58:26.655Z,75.13
2023-04-27T06:00:54.524Z,74.45
2023-04-27T06:03:21.904Z,75.80
2023-04-27T06:05:58.854Z,75.21
2023-04-27T06:08:27.140Z,75.83
2023-04-27T06:10:54.842Z,77.04
2023-04-27T06:13:21.900Z,76.64
2023-04-27T06:15:49.087Z,76.38
2023-04-27T06:18:16.362Z,75.58
2023-04-27T06:20:43.346Z,75.25
2023-04-27T06:23:10.416Z,73.73
2023-04-27T06:25:39.031Z,73.17
2023-04-27T06:28:06.747Z,73.18
2023-04-27T06:30:33.749Z,74.39
2023-04-27T06:33:00.808Z,74.27
2023-04-27T06:35:27.870Z,72.33
2023-04-27T06:37:58.958Z,72.67
2023-04-27T06:40:27.202Z,71.85
2023-04-27T06:42:54.283Z,70.17
2023-04-27T06:45:21.287Z,70.30
2023-04-27T06:47:48.388Z,69.71
2023-04-27T06:50:16.524Z,69.52
2023-04-27T06:52:43.852Z,69.92
2023-04-27T06:55:11.060Z,68.72
2023-04-27T06:57:38.182Z,69.75
2023-04-27T07:00:05.871Z,68.25
2023-04-27T07:02:33.066Z,68.94
2023-04-27T07:05:00.556Z,70.08
2023-04-27T07:07:27.693Z,71.24
2023-04-27T07:09:54.753Z,71.46
2023-04-27T07:12:21.842Z,68.33
2023-04-27T07:14:50.955Z,69.92
2023-04-27T07:17:18.096Z,66.07
2023-04-27T07:19:45.133Z,67.66
2023-04-27T07:22:12.265Z,67.81
2023-04-27T07:24:39.363Z,65.69
2023-04-27T07:27:06.398Z,66.94
2023-04-27T07:29:34.302Z,64.16
2023-04-27T07:32:01.614Z,64.63
2023-04-27T07:34:35.028Z,60.54
2023-04-27T07:37:09.248Z,62.19
2023-04-27T07:39:36.959Z,62.78
2023-04-27T07:42:04.363Z,60.16
2023-04-27T07:44:31.495Z,60.67
2023-04-27T07:46:58.695Z,62.31
2023-04-27T07:49:26.505Z,64.16
2023-04-27T07:51:53.601Z,63.96
2023-04-27T07:54:20.727Z,62.00
2023-04-27T07:56:47.838Z,60.46
2023-04-27T07:59:15.809Z,62.20
2023-04-27T08:01:43.052Z,63.33
2023-04-27T08:04:10.474Z,61.22
2023-04-27T08:06:38.338Z,61.10
2023-04-27T08:09:06.138Z,60.59
2023-04-27T08:11:33.115Z,62.04
2023-04-27T08:14:00.096Z,62.65
2023-04-27T08:16:27.799Z,64.69
2023-04-27T08:18:54.948Z,64.13
2023-04-27T08:21:21.916Z,63.29
2023-04-27T08:23:48.978Z,64.10
2023-04-27T08:26:16.755Z,61.72
2023-04-27T08:28:43.766Z,61.89
2023-04-27T08:31:10.962Z,61.97
2023-04-27T08:33:38.035Z,61.77
2023-04-27T08:36:05.470Z,60.02
2023-04-27T08:38:34.834Z,60.50
2023-04-27T08:41:14.180Z,59.90
2023-04-27T08:43:49.994Z,60.84
2023-04-27T08:46:21.452Z,57.41
2023-04-27T08:48:52.113Z,58.93
2023-04-27T08:51:20.190Z,56.57
2023-04-27T08:53:52.826Z,57.82
2023-04-27T08:56:23.455Z,60.34
2023-04-27T08:58:50.519Z,60.00
2023-04-27T09:01:18.021Z,57.68
2023-04-27T09:03:49.290Z,60.64
2023-04-27T09:06:16.868Z,60.28
2023-04-27T09:08:45.797Z,58.29
2023-04-27T09:11:14.346Z,58.14
2023-04-27T09:13:45.220Z,58.21
2023-04-27T09:16:16.363Z,56.11
2023-04-27T09:18:44.740Z,59.41
2023-04-27T09:21:21.894Z,55.35
2023-04-27T09:23:48.977Z,60.43
2023-04-27T09:26:22.004Z,57.44
2023-04-27T09:28:51.520Z,57.42
2023-04-27T09:31:18.807Z,57.96
2023-04-27T09:33:46.348Z,58.12
2023-04-27T09:36:14.108Z,59.42
2023-04-27T09:38:41.228Z,58.52
2023-04-27T09:41:09.010Z,57.54
2023-04-27T09:43:36.968Z,58.29
2023-04-27T10:17:16.317Z,56.85
2023-04-27T10:19:57.317Z,53.86
2023-04-27T10:22:37.791Z,53.19
2023-04-27T10:25:19.758Z,53.13
2023-04-27T10:27:52.592Z,54.45
2023-04-27T10:30:21.547Z,54.06
2023-04-27T10:32:59.611Z,53.77
2023-04-27T10:35:41.664Z,51.48
2023-04-27T10:38:09.740Z,52.00
2023-04-27T10:40:38.444Z,52.56
2023-04-27T10:43:10.080Z,53.20
2023-04-27T10:45:37.279Z,54.35
2023-04-27T10:48:05.389Z,53.62
2023-04-27T10:50:32.513Z,51.52
2023-04-27T10:53:07.314Z,50.75
2023-04-27T10:55:35.856Z,50.60
2023-04-27T10:58:04.408Z,51.17
2023-04-27T11:00:34.248Z,49.59
2023-04-27T11:03:13.218Z,49.82
2023-04-27T11:05:40.788Z,50.53
2023-04-27T11:08:20.616Z,50.60
2023-04-27T11:10:50.387Z,51.50
2023-04-27T11:13:22.870Z,49.49
2023-04-27T11:15:55.369Z,50.91
2023-04-27T11:18:24.649Z,51.33
2023-04-27T11:20:53.743Z,49.62
2023-04-27T11:23:29.021Z,50.16
2023-04-27T11:25:56.952Z,48.57
2023-04-27T11:28:24.653Z,49.78
2023-04-27T11:31:00.872Z,48.13
2023-04-27T11:33:28.715Z,47.60
2023-04-27T11:35:56.822Z,49.06
2023-04-27T11:38:24.327Z,48.31
2023-04-27T11:41:06.341Z,50.17
2023-04-27T11:43:34.352Z,48.74
2023-04-27T11:46:06.127Z,48.13
2023-04-27T11:48:33.197Z,48.48
2023-04-27T11:51:01.573Z,48.14
2023-04-27T11:53:36.842Z,49.64
2023-04-27T11:56:05.737Z,47.84
2023-04-27T11:58:37.393Z,48.21
2023-04-27T12:01:05.619Z,46.87
2023-04-27T12:03:32.968Z,47.23
2023-04-27T12:06:16.113Z,46.95
2023-04-27T12:08:47.168Z,49.34
2023-04-27T12:11:14.247Z,48.55
2023-04-27T12:13:41.279Z,48.24
2023-04-27T12:16:08.338Z,47.92
2023-04-27T12:18:35.395Z,46.38
2023-04-27T12:21:03.423Z,45.63
2023-04-27T12:23:31.112Z,47.96
2023-04-27T12:25:58.080Z,47.92
2023-04-27T12:28:25.066Z,48.81
2023-04-27T12:30:52.086Z,48.45
2023-04-27T12:33:19.270Z,49.47
2023-04-27T12:35:46.345Z,50.19
2023-04-27T12:38:13.364Z,49.04
2023-04-27T12:40:40.547Z,49.05
2023-04-27T12:43:08.999Z,49.65
2023-04-27T12:45:35.979Z,49.96
2023-04-27T12:48:04.153Z,49.13
2023-04-27T12:50:32.504Z,50.28
2023-04-27T12:53:00.380Z,50.14
2023-04-27T12:55:33.785Z,49.64
2023-04-27T12:58:02.389Z,49.73
2023-04-27T13:00:29.956Z,48.90
2023-04-27T13:02:57.638Z,50.29
2023-04-27T13:05:24.778Z,50.44
2023-04-27T13:07:52.447Z,48.98
2023-04-27T13:10:19.520Z,50.24
2023-04-27T13:12:46.654Z,50.94
2023-04-27T13:15:13.704Z,49.97
2023-04-27T13:17:43.507Z,51.47
2023-04-27T13:20:11.856Z,51.27
2023-04-27T13:22:40.954Z,52.26
2023-04-27T13:25:09.554Z,53.15
2023-04-27T13:27:36.786Z,52.83
2023-04-27T13:30:05.352Z,54.29
2023-04-27T13:32:32.661Z,52.38
2023-04-27T13:34:59.778Z,51.80
2023-04-27T13:37:27.208Z,52.15
2023-04-27T13:39:54.178Z,51.86
2023-04-27T13:42:21.662Z,52.33
2023-04-27T13:44:48.647Z,52.66
2023-04-27T13:47:15.651Z,51.91
2023-04-27T13:49:42.865Z,50.74
2023-04-27T13:52:09.971Z,52.92
2023-04-27T13:54:37.353Z,51.07
2023-04-27T13:57:04.419Z,51.44
2023-04-27T13:59:31.471Z,52.13
2023-04-27T14:01:58.533Z,52.10
2023-04-27T14:04:25.778Z,52.94
2023-04-27T14:06:52.934Z,53.24
2023-04-27T14:09:20.511Z,52.48
2023-04-27T14:11:56.451Z,55.02
2023-04-27T14:14:24.425Z,52.63
2023-04-27T14:17:23.809Z,54.84
2023-04-27T14:19:50.855Z,54.44
2023-04-27T14:22:18.103Z,53.47
2023-04-27T14:24:45.045Z,55.32
2023-04-27T14:27:12.066Z,54.49
2023-04-27T14:29:39.040Z,54.49
2023-04-27T14:32:06.460Z,54.16
2023-04-27T14:34:33.530Z,56.04
2023-04-27T14:37:00.670Z,55.46
2023-04-27T14:39:28.255Z,56.69
2023-04-27T14:41:55.246Z,61.11
2023-04-27T14:44:22.391Z,58.89
2023-04-27T14:46:49.382Z,59.39
2023-04-27T14:49:16.649Z,60.10
2023-04-27T14:51:43.873Z,59.19
2023-04-27T14:54:11.424Z,59.80
2023-04-27T14:56:38.383Z,58.96
2023-04-27T14:59:05.788Z,59.93
2023-04-27T15:01:32.795Z,59.66
2023-04-27T15:03:59.994Z,59.36
2023-04-27T15:06:30.486Z,59.40
2023-04-27T15:08:57.805Z,59.66
2023-04-27T15:11:24.824Z,60.38
2023-04-27T15:13:51.821Z,59.05
2023-04-27T15:16:20.184Z,58.80
2023-04-27T15:18:47.332Z,58.73
2023-04-27T15:21:14.344Z,58.00
2023-04-27T15:23:41.431Z,56.78
2023-04-27T15:26:08.510Z,56.01
2023-04-27T15:28:36.451Z,57.07
2023-04-27T15:31:03.744Z,57.11
2023-04-27T15:33:30.794Z,57.84
2023-04-27T15:35:59.167Z,57.11
2023-04-27T15:38:26.796Z,57.27
2023-04-27T15:40:53.807Z,57.81
2023-04-27T15:43:21.881Z,58.16
2023-04-27T15:45:49.213Z,57.94
2023-04-27T15:48:16.603Z,58.33
2023-04-27T15:50:45.334Z,57.84
2023-04-27T15:53:12.984Z,58.83
2023-04-27T15:55:40.543Z,58.91
2023-04-27T15:58:07.564Z,59.00
2023-04-27T16:00:35.175Z,59.03
2023-04-27T16:03:02.312Z,58.97
2023-04-27T16:05:29.591Z,58.55
2023-04-27T16:07:56.640Z,59.50
2023-04-27T16:10:23.726Z,60.00
2023-04-27T16:12:50.733Z,60.06
2023-04-27T16:15:17.887Z,60.87
2023-04-27T16:17:45.090Z,60.75
2023-04-27T16:20:12.270Z,61.56
2023-04-27T16:22:39.332Z,63.16
2023-04-27T16:25:12.512Z,63.06
2023-04-27T16:27:40.065Z,63.68
2023-04-27T16:30:07.726Z,63.68
2023-04-27T16:32:35.739Z,64.81
2023-04-27T16:35:03.377Z,64.79
2023-04-27T16:37:30.597Z,63.13
2023-04-27T16:40:01.583Z,63.78
2023-04-27T16:42:28.920Z,64.33
2023-04-27T16:44:56.609Z,64.96
2023-04-27T16:47:23.636Z,65.29
2023-04-27T16:49:51.359Z,65.20
2023-04-27T16:52:18.743Z,65.42
2023-04-27T16:54:46.175Z,66.07
2023-04-27T16:57:13.426Z,66.50
2023-04-27T16:59:40.634Z,67.27
2023-04-27T17:02:22.874Z,67.99
2023-04-27T17:04:51.881Z,68.37
2023-04-27T17:07:19.044Z,69.44
2023-04-27T17:09:46.080Z,69.77
2023-04-27T17:12:14.970Z,69.82
2023-04-27T17:14:42.825Z,70.90
2023-04-27T17:17:10.982Z,70.54
2023-04-27T17:19:39.189Z,71.00
2023-04-27T17:22:08.189Z,71.51
2023-04-27T17:24:35.197Z,71.70
2023-04-27T17:27:04.247Z,71.38
2023-04-27T17:29:31.829Z,72.04
2023-04-27T17:31:58.907Z,72.26
2023-04-27T17:34:26.003Z,72.41
2023-04-27T17:36:53.116Z,72.84
2023-04-27T17:39:22.696Z,73.37
2023-04-27T17:41:49.751Z,73.66
2023-04-27T17:44:17.308Z,73.90
2023-04-27T17:46:49.254Z,73.71
2023-04-27T17:49:18.407Z,74.09
2023-04-27T17:51:46.478Z,73.92
2023-04-27T17:54:13.503Z,74.52
2023-04-27T17:56:40.531Z,74.17
2023-04-27T17:59:08.565Z,74.75
2023-04-27T18:01:35.839Z,75.31
2023-04-27T18:04:04.514Z,75.63
2023-04-27T18:06:32.203Z,75.38
2023-04-27T18:08:59.224Z,75.70
2023-04-27T18:11:26.505Z,76.01
2023-04-27T18:13:58.241Z,76.56
2023-04-27T18:16:25.955Z,76.72
2023-04-27T18:18:52.961Z,77.81
2023-04-27T18:21:20.000Z,77.82
2023-04-27T18:23:47.122Z,77.94
2023-04-27T18:26:14.234Z,77.91
2023-04-27T18:28:41.944Z,77.51
2023-04-27T18:31:16.436Z,77.80
2023-04-27T18:33:47.205Z,77.91
2023-04-27T18:36:14.373Z,78.16
2023-04-27T18:38:41.382Z,78.57
2023-04-27T18:41:08.601Z,78.57
2023-04-27T18:43:37.016Z,79.61
2023-04-27T18:46:04.793Z,80.01
2023-04-27T18:48:32.686Z,80.43
2023-04-27T18:50:59.676Z,81.24
2023-04-27T18:53:27.430Z,81.15
2023-04-27T18:55:54.400Z,81.38
2023-04-27T18:58:21.685Z,81.30
2023-04-27T19:00:48.822Z,81.36
2023-04-27T19:03:16.652Z,81.58
2023-04-27T19:05:44.215Z,82.30
2023-04-27T19:08:11.341Z,82.01
2023-04-27T19:10:41.274Z,82.29
2023-04-27T19:13:08.647Z,82.37
2023-04-27T19:15:35.898Z,81.86
2023-04-27T19:18:10.691Z,82.54
2023-04-27T19:20:38.967Z,82.07
2023-04-27T19:23:06.058Z,82.96
2023-04-27T19:25:33.079Z,83.02
2023-04-27T19:28:00.537Z,82.84
2023-04-27T19:30:27.830Z,81.75
2023-04-27T19:32:54.934Z,82.08
2023-04-27T19:35:23.942Z,82.14
2023-04-27T19:37:51.188Z,82.83
2023-04-27T19:40:18.544Z,82.44
2023-04-27T19:42:45.757Z,82.39
2023-04-27T19:45:13.236Z,82.51
2023-04-27T19:47:40.365Z,83.45
2023-04-27T19:50:07.892Z,83.85
2023-04-27T19:52:34.920Z,84.28
2023-04-27T19:55:01.948Z,84.92
2023-04-27T19:57:29.078Z,84.89
2023-04-27T19:59:56.455Z,84.94
2023-04-27T20:02:23.547Z,85.44
2023-04-27T20:04:51.027Z,83.41
2023-04-27T20:07:18.279Z,83.51
2023-04-27T20:09:45.320Z,84.76
2023-04-27T20:12:28.822Z,85.25
2023-04-27T20:14:59.372Z,84.80
2023-04-27T20:17:26.561Z,84.34
2023-04-27T20:19:57.249Z,83.97
2023-04-27T20:22:24.299Z,83.24
2023-04-27T20:24:51.434Z,83.93
2023-04-27T20:27:18.627Z,83.76
2023-04-27T20:29:47.420Z,83.22
2023-04-27T20:32:14.442Z,82.89
2023-04-27T20:34:41.540Z,83.71
2023-04-27T20:37:09.697Z,83.52
2023-04-27T20:39:36.973Z,83.01
2023-04-27T20:42:04.019Z,82.99
2023-04-27T20:44:32.498Z,81.78
2023-04-27T20:46:59.581Z,80.69
2023-04-27T20:49:34.527Z,79.26
2023-04-27T20:52:03.137Z,80.16
2023-04-27T20:54:33.088Z,80.38
2023-04-27T20:57:03.869Z,79.57
2023-04-27T20:59:31.092Z,78.64
2023-04-27T21:01:58.081Z,78.18
2023-04-27T21:04:25.240Z,76.73
2023-04-27T21:06:52.935Z,74.37
2023-04-27T21:09:20.014Z,73.69
2023-04-27T21:11:47.050Z,75.02
2023-04-27T21:14:14.252Z,74.13
2023-04-27T21:16:41.545Z,74.73
2023-04-27T21:19:14.794Z,76.15
2023-04-27T21:21:41.896Z,76.30
2023-04-27T21:24:09.043Z,76.02
2023-04-27T21:26:36.082Z,76.84
2023-04-27T21:29:05.895Z,76.34
2023-04-27T21:31:34.029Z,77.18
2023-04-27T21:34:02.117Z,77.60
2023-04-27T21:36:29.426Z,77.70
2023-04-27T21:38:56.446Z,78.49
2023-04-27T21:41:24.280Z,78.24
2023-04-27T21:43:51.345Z,78.09
2023-04-27T21:46:18.440Z,78.00
2023-04-27T21:48:45.550Z,78.52
2023-04-27T21:51:12.606Z,78.78
2023-04-27T21:53:39.583Z,78.36
2023-04-27T21:56:06.928Z,78.28
2023-04-27T21:58:33.884Z,77.98
2023-04-27T22:01:01.342Z,76.42
2023-04-27T22:03:29.060Z,75.27
2023-04-27T22:05:57.764Z,75.22
2023-04-27T22:08:24.938Z,74.50
2023-04-27T22:10:52.096Z,74.37
2023-04-27T22:13:19.743Z,74.39
2023-04-27T22:15:47.678Z,75.07
2023-04-27T22:18:15.679Z,75.76
2023-04-27T22:20:43.191Z,75.21
2023-04-27T22:23:10.912Z,75.81
2023-04-27T22:25:37.871Z,75.80
2023-04-27T22:28:05.020Z,75.47
2023-04-27T22:30:31.999Z,75.66
2023-04-27T22:32:59.283Z,75.67
2023-04-27T22:35:27.816Z,75.88
2023-04-27T22:37:55.991Z,75.92
2023-04-27T22:40:23.311Z,75.94
2023-04-27T22:42:50.826Z,77.25
2023-04-27T22:45:17.834Z,75.83
2023-04-27T22:47:46.116Z,74.72
2023-04-27T22:50:13.865Z,73.57
2023-04-27T22:52:44.427Z,72.82
2023-04-27T22:55:12.800Z,72.32
2023-04-27T22:57:41.596Z,72.09
2023-04-27T23:00:11.259Z,72.29
2023-04-27T23:02:41.872Z,72.04
2023-04-27T23:05:10.941Z,72.71
2023-04-27T23:07:38.947Z,72.89
2023-04-27T23:10:06.456Z,72.60
2023-04-27T23:12:33.666Z,73.80
2023-04-27T23:15:00.708Z,73.93
2023-04-27T23:17:30.833Z,74.22
2023-04-27T23:19:59.492Z,74.29
2023-04-27T23:22:27.369Z,74.70
2023-04-27T23:24:54.695Z,74.79
2023-04-27T23:27:22.770Z,75.30
2023-04-27T23:29:49.763Z,75.58
2023-04-27T23:32:17.280Z,75.70
2023-04-27T23:34:44.345Z,75.92
2023-04-27T23:37:11.389Z,76.46
2023-04-27T23:39:38.445Z,76.39
2023-04-27T23:42:05.570Z,76.45
2023-04-27T23:44:32.708Z,76.32
2023-04-27T23:46:59.722Z,76.03
2023-04-27T23:49:26.696Z,75.88
2023-04-27T23:51:53.758Z,76.67
2023-04-27T23:54:20.708Z,77.43
2023-04-27T23:56:47.721Z,76.95
2023-04-27T23:59:15.341Z,76.93
